Time;durP1;ratioP1;P1;durP2;ratioP2;P2;SDS_P1;SDS_P2;PMS_P1;PMS_P2;Temp;Humidity;BMP_temperature;BMP_pressure;BME280_temperature;BME280_humidity;BME280_pressure;Samples;Min_cycle;Max_cycle;Signal;HPM_P1;HPM_P2
2021/11/26 03:33:00;;;;;;;;;;;;;;;4.78;100.00;98616.16;4972515;28;19928;-87
2021/11/26 03:35:25;;;;;;;;;;;;;;;4.79;100.00;98607.38;4985489;28;19976;-84
2021/11/26 03:37:51;;;;;;;;;;;;;;;4.82;100.00;98603.75;4984522;28;19926;-86
2021/11/26 03:40:17;;;;;;;;;;;;;;;4.84;100.00;98605.41;4983751;28;20184;-84
2021/11/26 03:42:43;;;;;;;;;;;;;;;4.85;100.00;98603.63;4984874;28;20427;-83
2021/11/26 03:45:09;;;;;;;;;;;;;;;4.88;100.00;98596.53;4983150;28;19918;-85
2021/11/26 03:47:35;;;;;;;;;;;;;;;4.88;100.00;98591.28;4984666;28;20327;-84
2021/11/26 03:50:00;;;;;;;;;;;;;;;4.91;100.00;98593.78;4983111;28;19922;-84
2021/11/26 03:52:25;;;;;;;;;;;;;;;4.52;100.00;98589.13;4966682;28;20020;-86
2021/11/26 03:54:51;;;;;;;;;;;;;;;3.73;100.00;98588.41;4982045;28;19929;-84
2021/11/26 03:57:16;;;;;;;;;;;;;;;3.53;100.00;98576.00;4984199;28;19929;-83
2021/11/26 03:59:41;;;;;;;;;;;;;;;3.32;100.00;98577.59;4983434;28;19924;-84
2021/11/26 04:02:08;;;;;;;;;;;;;;;3.20;100.00;98567.50;4984327;28;20444;-88
2021/11/26 04:04:33;;;;;;;;;;;;;;;3.25;100.00;98569.03;4967022;28;19922;-87
2021/11/26 04:06:58;;;;;;;;;;;;;;;3.01;98.52;98569.84;4966568;28;19941;-85
2021/11/26 04:09:23;;;;;;;;;;;;;;;3.06;98.56;98571.44;4974470;28;19977;-87
2021/11/26 04:11:49;;;;;;;;;;;;;;;3.04;98.72;98573.22;4966397;28;19925;-84
2021/11/26 04:14:15;;;;;;;;;;;;;;;2.96;98.73;98566.53;4982777;28;19926;-84
2021/11/26 04:16:40;;;;;;;;;;;;;;;2.82;98.85;98566.94;4998850;28;19961;-84
2021/11/26 04:19:05;;;;;;;;;;;;;;;2.88;99.46;98572.00;4984201;28;20400;-84
2021/11/26 04:21:31;;;;;;;;;;;;;;;2.88;100.00;98567.59;4966968;28;20004;-84
2021/11/26 04:23:56;;;;;;;;;;;;;;;2.90;100.00;98563.22;4983973;28;19933;-83
2021/11/26 04:26:21;;;;;;;;;;;;;;;2.80;100.00;98558.28;4966189;28;19965;-89
2021/11/26 04:28:47;;;;;;;;;;;;;;;2.80;100.00;98553.06;4997134;28;20353;-83
2021/11/26 04:31:12;;;;;;;;;;;;;;;2.79;100.00;98546.09;4966556;28;19918;-83
2021/11/26 04:33:37;;;;;;;;;;;;;;;2.62;100.00;98546.66;4983571;28;20542;-88
2021/11/26 04:36:03;;;;;;;;;;;;;;;2.65;100.00;98547.41;4982912;28;19918;-89
2021/11/26 04:38:28;;;;;;;;;;;;;;;2.62;100.00;98546.66;4983570;28;19925;-83
2021/11/26 04:40:53;;;;;;;;;;;;;;;2.58;100.00;98545.84;4965795;28;19922;-84
2021/11/26 04:43:20;;;;;;;;;;;;;;;2.60;100.00;98543.19;4983442;28;19942;-83
2021/11/26 04:45:47;;;;;;;;;;;;;;;2.45;100.00;98537.53;4979585;28;20286;-87
2021/11/26 04:48:12;;;;;;;;;;;;;;;2.42;99.83;98534.16;4965178;28;19956;-86
2021/11/26 04:50:37;;;;;;;;;;;;;;;2.40;99.70;98531.59;4965689;28;20393;-88
2021/11/26 04:53:03;;;;;;;;;;;;;;;2.31;99.35;98529.22;4997830;28;19972;-85
2021/11/26 04:55:28;;;;;;;;;;;;;;;2.32;98.88;98528.34;4983588;28;19921;-86
2021/11/26 04:57:53;;;;;;;;;;;;;;;2.35;98.32;98526.50;4965577;28;19922;-88
2021/11/26 05:00:19;;;;;;;;;;;;;;;2.29;97.55;98521.44;4981736;28;20385;-83
2021/11/26 05:02:45;;;;;;;;;;;;;;;2.24;97.22;98531.19;4983538;28;20285;-83
2021/11/26 05:05:10;;;;;;;;;;;;;;;2.19;96.77;98535.69;4983332;28;19929;-88
2021/11/26 08:48:08;;;;;;;;;;;;;;;1.35;80.86;98264.75;5365299;23;19941;-85
2021/11/26 08:50:34;;;;;;;;;;;;;;;1.48;81.11;98262.63;4992928;28;19949;-84
2021/11/26 08:53:02;;;;;;;;;;;;;;;1.47;81.47;98261.78;4959598;28;19926;-84
2021/11/26 08:55:27;;;;;;;;;;;;;;;1.39;81.05;98255.97;4962783;28;20050;-84
2021/11/26 08:57:54;;;;;;;;;;;;;;;1.37;80.84;98252.50;4961981;28;20365;-87
2021/11/26 09:00:22;;;;;;;;;;;;;;;1.39;80.97;98246.34;4962073;28;19919;-84
2021/11/26 09:02:47;;;;;;;;;;;;;;;1.41;80.67;98243.72;4963207;28;19926;-84
2021/11/26 09:05:13;;;;;;;;;;;;;;;1.40;80.49;98242.81;4963723;28;19925;-84
2021/11/26 09:07:39;;;;;;;;;;;;;;;1.38;80.41;98239.41;4963751;28;19929;-85
2021/11/26 09:10:04;;;;;;;;;;;;;;;1.43;80.31;98247.13;4963028;28;19918;-86
2021/11/26 09:12:30;;;;;;;;;;;;;;;1.43;80.21;98239.28;4963747;28;19953;-86
2021/11/26 09:14:55;;;;;;;;;;;;;;;1.40;80.04;98231.53;4964142;28;19923;-87
2021/11/26 09:17:21;;;;;;;;;;;;;;;1.40;80.08;98234.16;4962288;28;19918;-86
2021/11/26 09:19:46;;;;;;;;;;;;;;;1.44;80.07;98227.94;4963353;28;19928;-84
2021/11/26 09:22:12;;;;;;;;;;;;;;;1.43;79.92;98226.22;4963264;28;20417;-86
2021/11/26 09:24:37;;;;;;;;;;;;;;;1.47;79.95;98227.88;4963276;28;19922;-84
2021/11/26 09:27:03;;;;;;;;;;;;;;;1.45;79.89;98227.91;4963498;28;19980;-87
2021/11/26 09:29:28;;;;;;;;;;;;;;;3.35;83.71;98223.13;4964809;28;19922;-84
2021/11/26 09:31:53;;;;;;;;;;;;;;;4.62;80.80;98210.97;4961324;28;19922;-88
2021/11/26 09:34:18;;;;;;;;;;;;;;;5.22;78.75;98196.00;4961321;28;19941;-85
2021/11/26 09:36:44;;;;;;;;;;;;;;;5.49;77.67;98187.75;4963616;28;19926;-88
2021/11/26 09:39:09;;;;;;;;;;;;;;;5.73;77.20;98190.16;4963595;28;19926;-87
2021/11/26 09:41:34;;;;;;;;;;;;;;;5.93;76.40;98186.53;4963312;28;20305;-88
2021/11/26 09:44:01;;;;;;;;;;;;;;;6.02;76.28;98177.38;4963071;28;19974;-85
2021/11/26 09:46:29;;;;;;;;;;;;;;;6.28;75.57;98169.00;4960917;28;19926;-83
2021/11/26 09:48:55;;;;;;;;;;;;;;;6.48;74.76;98161.88;4962174;28;19922;-85
2021/11/26 09:51:20;;;;;;;;;;;;;;;6.45;75.25;98159.41;4963549;28;19919;-85
2021/11/26 09:53:46;;;;;;;;;;;;;;;6.45;75.36;98156.78;4963026;28;19991;-84
2021/11/26 09:56:12;;;;;;;;;;;;;;;6.44;75.62;98161.16;4963221;28;19922;-89
2021/11/26 09:58:37;;;;;;;;;;;;;;;6.49;75.67;98158.31;4962170;28;19918;-86
2021/11/26 10:01:04;;;;;;;;;;;;;;;6.50;75.66;98152.97;4963351;28;20358;-84
2021/11/26 10:03:45;;;;;;;;;;;;;;;6.57;75.87;98142.97;4962864;28;19938;-84
2021/11/26 10:06:25;;;;;;;;;;;;;;;6.58;75.89;98135.94;4969274;28;19944;-86
2021/11/26 10:08:58;;;;;;;;;;;;;;;6.75;75.61;98132.38;4961013;28;19922;-85
2021/11/26 10:11:27;;;;;;;;;;;;;;;6.79;75.57;98132.16;4963180;28;20397;-86
2021/11/26 10:13:52;;;;;;;;;;;;;;;6.73;75.79;98128.06;4962946;28;19922;-85
2021/11/26 10:16:17;;;;;;;;;;;;;;;6.70;76.16;98130.88;4962097;28;19925;-89
2021/11/26 10:18:47;;;;;;;;;;;;;;;5.63;78.38;98130.16;4963209;28;19923;-85
2021/11/26 10:21:13;;;;;;;;;;;;;;;5.38;81.12;98129.63;4961624;28;19966;-84
2021/11/26 10:23:38;;;;;;;;;;;;;;;5.63;82.44;98122.25;4962047;28;20341;-84
2021/11/26 10:26:20;;;;;;;;;;;;;;;5.68;83.20;98123.78;4963172;28;19922;-84
2021/11/26 10:28:50;;;;;;;;;;;;;;;5.58;84.18;98113.72;4963102;28;20005;-85
2021/11/26 10:31:20;;;;;;;;;;;;;;;5.62;84.77;98110.03;4961765;28;19926;-84
2021/11/26 10:33:45;;;;;;;;;;;;;;;5.56;85.58;98109.50;4965795;28;19922;-88
2021/11/26 10:36:11;;;;;;;;;;;;;;;5.55;86.24;98098.16;4964992;28;20392;-85
2021/11/26 10:38:37;;;;;;;;;;;;;;;5.66;86.71;98094.97;4965478;28;19976;-85
2021/11/26 10:41:03;;;;;;;;;;;;;;;5.80;87.00;98086.41;4965366;28;20406;-85
2021/11/26 10:43:49;;;;;;;;;;;;;;;5.91;87.33;98083.22;4965081;28;19918;-85
2021/11/26 10:49:47;;;;;;;;;;;;;;;6.23;88.02;98071.06;4966840;28;20019;-84
2021/11/26 11:00:12;;;;;;;;;;;;;;;6.47;88.50;98044.41;4953605;29;19925;-84
2021/11/26 11:02:39;;;;;;;;;;;;;;;6.56;88.10;98038.66;4959671;28;19949;-85
2021/11/26 11:05:31;;;;;;;;;;;;;;;6.57;88.13;98037.69;4964397;28;19918;-88
2021/11/26 11:07:58;;;;;;;;;;;;;;;6.60;88.01;98034.91;4963817;28;19922;-86
2021/11/26 11:10:37;;;;;;;;;;;;;;;6.60;88.16;98016.47;4971663;28;19942;-85
2021/11/26 11:13:09;;;;;;;;;;;;;;;6.72;88.19;98023.69;4962959;28;20187;-84
2021/11/26 11:15:35;;;;;;;;;;;;;;;6.99;87.61;98009.06;4979577;28;19925;-89
2021/11/26 11:18:01;;;;;;;;;;;;;;;6.99;87.40;98004.69;4979115;28;20001;-85
2021/11/26 11:20:26;;;;;;;;;;;;;;;6.88;87.73;98009.69;4964536;28;20014;-84
2021/11/26 11:22:52;;;;;;;;;;;;;;;6.82;87.90;97999.50;4980430;28;19919;-85
2021/11/26 11:25:24;;;;;;;;;;;;;;;6.89;87.76;97992.94;4964419;28;19925;-86
2021/11/26 11:27:50;;;;;;;;;;;;;;;6.86;87.77;97991.34;4964847;28;20397;-86
2021/11/26 11:30:16;;;;;;;;;;;;;;;6.91;87.63;97985.84;4965205;28;19989;-88
2021/11/26 11:32:41;;;;;;;;;;;;;;;6.94;87.66;97987.44;4962808;28;19922;-89
2021/11/26 11:35:08;;;;;;;;;;;;;;;6.87;87.49;97981.66;4963787;28;19926;-86
2021/11/26 11:37:33;;;;;;;;;;;;;;;7.01;87.61;97981.72;4965328;28;19918;-84
2021/11/26 11:40:09;;;;;;;;;;;;;;;7.20;87.34;97973.63;4964177;28;19965;-89
2021/11/26 11:42:35;;;;;;;;;;;;;;;7.19;87.15;97973.72;4962337;28;20278;-84
2021/11/26 11:45:22;;;;;;;;;;;;;;;7.05;87.35;97962.19;4963609;28;20028;-89
2021/11/26 11:47:53;;;;;;;;;;;;;;;7.06;87.23;97957.75;4962948;28;20389;-84
2021/11/26 11:50:20;;;;;;;;;;;;;;;7.03;87.41;97950.88;4964900;28;20385;-84
2021/11/26 11:52:48;;;;;;;;;;;;;;;7.11;87.27;97957.50;4965309;28;19926;-89
2021/11/26 11:55:18;;;;;;;;;;;;;;;6.99;87.30;97953.78;4971833;28;20021;-88
2021/11/26 11:57:43;;;;;;;;;;;;;;;7.17;87.03;97942.19;4964957;28;19918;-87
2021/11/26 12:00:13;;;;;;;;;;;;;;;7.19;86.85;97937.66;4964046;28;19929;-85
2021/11/26 12:02:42;;;;;;;;;;;;;;;7.41;86.19;97936.41;4978011;28;20404;-84
2021/11/26 12:05:18;;;;;;;;;;;;;;;7.52;86.04;97934.00;4963808;28;20378;-89
2021/11/26 12:07:43;;;;;;;;;;;;;;;7.42;86.17;97933.69;4964841;28;19919;-87
2021/11/26 12:10:12;;;;;;;;;;;;;;;7.42;86.22;97928.44;4963932;28;20320;-85
2021/11/26 12:12:47;;;;;;;;;;;;;;;7.34;86.46;97920.13;4962846;28;19994;-87
2021/11/26 12:15:22;;;;;;;;;;;;;;;7.36;86.37;97912.97;4962847;28;20031;-87
2021/11/26 12:17:54;;;;;;;;;;;;;;;7.40;86.23;97903.97;4962089;28;19929;-88
2021/11/26 12:20:21;;;;;;;;;;;;;;;7.41;86.21;97900.38;4963884;28;19977;-89
2021/11/26 12:22:52;;;;;;;;;;;;;;;7.39;86.26;97898.78;4964865;28;19926;-83
2021/11/26 12:25:37;;;;;;;;;;;;;;;7.66;85.84;97901.53;4963307;28;19923;-84
2021/11/26 12:28:07;;;;;;;;;;;;;;;7.54;86.07;97889.09;4964625;28;20008;-85
2021/11/26 12:30:33;;;;;;;;;;;;;;;7.57;85.79;97889.75;4963899;28;20293;-90
2021/11/26 12:32:58;;;;;;;;;;;;;;;7.57;85.59;97883.63;4976828;28;19961;-84
2021/11/26 12:35:24;;;;;;;;;;;;;;;7.51;85.70;97881.38;4962888;28;20396;-88
2021/11/26 12:37:55;;;;;;;;;;;;;;;7.67;85.63;97868.94;4963450;28;19925;-84
2021/11/26 12:40:23;;;;;;;;;;;;;;;7.72;85.57;97869.53;4970036;28;19918;-86
2021/11/26 12:42:56;;;;;;;;;;;;;;;7.85;85.31;97855.56;4963222;28;19925;-83
2021/11/26 12:45:21;;;;;;;;;;;;;;;7.73;85.27;97852.75;4963259;28;19922;-85
2021/11/26 12:47:56;;;;;;;;;;;;;;;7.64;85.53;97848.91;4962895;28;20003;-84
2021/11/26 12:53:07;;;;;;;;;;;;;;;8.94;92.35;97842.44;4964060;28;20370;-84
2021/11/26 12:55:32;;;;;;;;;;;;;;;9.04;92.45;97825.00;4963639;28;20310;-86
2021/11/26 12:57:57;;;;;;;;;;;;;;;9.09;92.03;97809.69;4962382;28;19983;-84
2021/11/26 13:00:23;;;;;;;;;;;;;;;9.15;91.13;97805.81;4962322;28;19922;-84
2021/11/26 13:02:48;;;;;;;;;;;;;;;9.16;90.57;97802.19;4961279;28;19922;-89
2021/11/26 13:05:20;;;;;;;;;;;;;;;9.18;89.51;97805.59;4962339;28;19928;-84
2021/11/26 13:07:46;;;;;;;;;;;;;;;9.20;88.73;97796.59;4963452;28;19925;-84
2021/11/26 13:10:20;;;;;;;;;;;;;;;9.21;88.09;97785.06;4977117;28;19918;-90
2021/11/26 13:12:50;;;;;;;;;;;;;;;9.21;87.18;97778.97;4961909;28;19922;-87
2021/11/26 13:15:27;;;;;;;;;;;;;;;9.22;86.97;97773.56;4977817;28;19926;-88
2021/11/26 13:17:54;;;;;;;;;;;;;;;9.23;86.57;97769.13;4962661;28;19957;-85
2021/11/26 13:20:29;;;;;;;;;;;;;;;9.20;86.18;97762.25;4969899;28;19922;-85
2021/11/26 13:22:57;;;;;;;;;;;;;;;9.29;85.38;97765.22;4977870;28;19949;-88
2021/11/26 13:25:31;;;;;;;;;;;;;;;9.25;85.06;97754.84;4962512;28;19923;-86
2021/11/26 13:27:58;;;;;;;;;;;;;;;9.25;84.70;97754.84;4961648;28;19926;-87
2021/11/26 13:30:26;;;;;;;;;;;;;;;9.28;84.32;97745.84;4961076;28;19919;-87
2021/11/26 13:33:01;;;;;;;;;;;;;;;9.31;83.73;97735.06;4958318;28;20010;-88
2021/11/26 13:35:28;;;;;;;;;;;;;;;9.34;83.54;97731.38;4962941;28;20396;-84
2021/11/26 13:37:55;;;;;;;;;;;;;;;9.40;82.77;97725.66;4962553;28;19918;-88
2021/11/26 13:40:20;;;;;;;;;;;;;;;9.50;81.82;97725.84;4961418;28;19936;-89
2021/11/26 13:42:49;;;;;;;;;;;;;;;9.49;81.08;97719.69;4962075;28;20007;-85
2021/11/26 13:45:14;;;;;;;;;;;;;;;9.53;80.62;97720.34;4961332;28;19918;-87
2021/11/26 13:47:40;;;;;;;;;;;;;;;9.54;80.12;97709.66;4955966;28;19918;-84
2021/11/26 13:50:06;;;;;;;;;;;;;;;9.60;79.30;97703.06;4962037;28;20298;-85
2021/11/26 13:52:31;;;;;;;;;;;;;;;9.64;78.74;97700.09;4961650;28;19973;-88
2021/11/26 13:54:57;;;;;;;;;;;;;;;9.64;78.12;97700.09;4963063;28;20345;-86
2021/11/26 13:57:23;;;;;;;;;;;;;;;9.69;77.53;97694.47;4962728;28;20804;-84
2021/11/26 13:59:50;;;;;;;;;;;;;;;9.70;76.94;97692.66;4963185;28;20277;-89
2021/11/26 14:02:16;;;;;;;;;;;;;;;9.48;77.67;97683.66;4960813;28;19918;-88
2021/11/26 14:04:43;;;;;;;;;;;;;;;9.48;77.63;97691.59;4961889;28;20033;-88
2021/11/26 14:07:13;;;;;;;;;;;;;;;9.47;77.44;97689.88;4962964;28;20366;-85
2021/11/26 14:09:39;;;;;;;;;;;;;;;9.43;77.53;97675.22;4966231;28;20094;-88
2021/11/26 14:12:22;;;;;;;;;;;;;;;9.51;77.00;97674.66;4973567;28;19921;-91
2021/11/26 14:14:47;;;;;;;;;;;;;;;9.56;76.47;97670.72;4965200;28;20032;-89
2021/11/26 14:17:13;;;;;;;;;;;;;;;9.57;76.10;97661.84;4980343;28;20009;-90
2021/11/26 14:19:43;;;;;;;;;;;;;;;9.54;76.11;97659.44;4965400;28;19954;-86
2021/11/26 14:22:13;;;;;;;;;;;;;;;9.51;76.31;97651.72;4965672;28;19919;-89
2021/11/26 14:24:41;;;;;;;;;;;;;;;9.57;75.71;97653.91;4965349;28;19922;-89
2021/11/26 14:27:07;;;;;;;;;;;;;;;8.46;73.95;97664.31;5580021;23;20308;-89
2021/11/26 14:29:32;;;;;;;;;;;;;;;7.77;77.04;97664.44;4939687;28;19933;-89
2021/11/26 14:31:58;;;;;;;;;;;;;;;7.77;78.48;97666.22;4955926;28;20021;-92
2021/11/26 14:34:23;;;;;;;;;;;;;;;7.80;79.18;97658.09;4956978;28;20005;-89
2021/11/26 14:36:50;;;;;;;;;;;;;;;7.78;79.80;97652.94;4939568;29;19915;-88
2021/11/26 14:39:15;;;;;;;;;;;;;;;7.65;80.27;97644.16;4955452;28;19922;-85
2021/11/26 14:41:42;;;;;;;;;;;;;;;7.65;80.88;97644.16;4939398;29;19963;-85
2021/11/26 14:44:13;;;;;;;;;;;;;;;7.66;80.87;97632.66;4939294;29;19973;-84
2021/11/26 14:46:52;;;;;;;;;;;;;;;7.64;80.98;97631.91;4937177;29;19922;-83
2021/11/26 14:49:17;;;;;;;;;;;;;;;7.62;81.40;97617.97;4955202;28;20433;-86
2021/11/26 14:51:44;;;;;;;;;;;;;;;8.05;80.53;97620.41;4939426;29;20045;-89
2021/11/26 14:54:11;;;;;;;;;;;;;;;8.17;79.93;97629.31;4954397;29;19925;-89
2021/11/26 14:56:38;;;;;;;;;;;;;;;8.35;79.45;97608.75;4955809;28;19919;-86
2021/11/26 14:59:07;;;;;;;;;;;;;;;8.23;79.47;97613.03;4939351;29;20285;-85
2021/11/26 15:01:33;;;;;;;;;;;;;;;8.05;80.01;97604.59;4954647;28;20036;-88
2021/11/26 15:03:59;;;;;;;;;;;;;;;8.03;79.93;97603.84;4956300;29;19918;-84
2021/11/26 15:06:24;;;;;;;;;;;;;;;8.00;79.96;97606.69;4938959;28;19929;-86
2021/11/26 15:08:50;;;;;;;;;;;;;;;8.23;79.58;97596.38;4956152;29;19919;-86
2021/11/26 15:11:15;;;;;;;;;;;;;;;8.09;79.43;97584.13;4938937;28;20294;-87
2021/11/26 15:13:41;;;;;;;;;;;;;;;8.29;79.15;97585.41;4954092;28;19918;-85
2021/11/26 15:16:06;;;;;;;;;;;;;;;8.35;78.78;97583.19;4938870;29;20366;-84
2021/11/26 15:18:31;;;;;;;;;;;;;;;8.45;78.62;97575.50;4954360;28;20071;-89
2021/11/26 15:20:57;;;;;;;;;;;;;;;8.53;77.91;97567.91;4938748;29;19918;-84
2021/11/26 15:23:22;;;;;;;;;;;;;;;8.38;78.23;97558.41;4938587;28;19930;-84
2021/11/26 15:25:48;;;;;;;;;;;;;;;8.27;78.50;97563.56;4938807;29;20350;-84
2021/11/26 15:28:13;;;;;;;;;;;;;;;8.21;78.81;97553.44;4955630;28;19926;-85
2021/11/26 15:30:39;;;;;;;;;;;;;;;8.25;78.66;97547.00;4938746;29;19922;-85
2021/11/26 15:33:04;;;;;;;;;;;;;;;8.46;78.10;97540.28;4937356;29;19926;-86
2021/11/26 15:35:30;;;;;;;;;;;;;;;8.37;78.09;97533.78;4954328;28;19926;-89
2021/11/26 15:37:55;;;;;;;;;;;;;;;8.42;77.94;97522.91;4955817;28;19978;-86
2021/11/26 15:40:21;;;;;;;;;;;;;;;8.67;77.50;97516.78;4938240;28;19918;-86
2021/11/26 15:42:46;;;;;;;;;;;;;;;8.62;77.11;97513.63;4938473;29;19961;-85
2021/11/26 15:45:12;;;;;;;;;;;;;;;8.59;76.97;97508.56;4938444;28;20299;-84
2021/11/26 15:47:38;;;;;;;;;;;;;;;8.44;77.30;97513.16;4937055;28;20449;-90
2021/11/26 15:50:04;;;;;;;;;;;;;;;8.45;77.21;97509.53;4938681;29;19918;-85
2021/11/26 15:52:31;;;;;;;;;;;;;;;8.35;77.42;97505.84;4955269;28;20002;-85
2021/11/26 15:54:57;;;;;;;;;;;;;;;8.43;77.46;97503.53;4938022;29;20001;-84
2021/11/26 15:57:22;;;;;;;;;;;;;;;8.36;77.65;97502.25;4938169;28;19918;-83
2021/11/26 15:59:48;;;;;;;;;;;;;;;8.35;77.71;97490.00;4955342;29;19926;-84
2021/11/26 16:02:13;;;;;;;;;;;;;;;8.32;78.06;97485.78;4953944;28;20021;-87
2021/11/26 16:04:38;;;;;;;;;;;;;;;8.48;77.40;97475.00;4955181;28;20405;-88
2021/11/26 16:07:04;;;;;;;;;;;;;;;8.70;76.61;97479.59;4955173;28;20020;-85
2021/11/26 16:09:29;;;;;;;;;;;;;;;8.66;76.61;97472.00;4955043;28;20009;-86
2021/11/26 16:11:54;;;;;;;;;;;;;;;8.64;76.45;97455.44;4955202;28;19918;-88
2021/11/26 16:14:20;;;;;;;;;;;;;;;8.67;76.35;97458.69;4954974;28;19926;-85
2021/11/26 16:16:45;;;;;;;;;;;;;;;8.63;76.72;97461.66;4953866;28;20358;-87
2021/11/26 16:19:10;;;;;;;;;;;;;;;8.50;76.89;97465.22;4954802;28;20294;-87
2021/11/26 16:21:36;;;;;;;;;;;;;;;8.54;76.74;97445.53;4954770;28;19918;-86
2021/11/26 16:24:01;;;;;;;;;;;;;;;8.47;76.98;97444.31;4954681;28;20425;-86
2021/11/26 16:26:26;;;;;;;;;;;;;;;8.53;76.81;97438.56;4937760;28;20495;-87
2021/11/26 16:28:53;;;;;;;;;;;;;;;8.66;76.52;97440.34;4937216;29;19922;-88
2021/11/26 16:33:54;;;;;;;;;;;;;;;8.81;75.70;97427.84;4954537;28;19930;-86
2021/11/26 16:36:20;;;;;;;;;;;;;;;8.73;75.57;97420.47;4936851;29;19953;-85
2021/11/26 16:38:46;;;;;;;;;;;;;;;8.56;75.85;97418.22;4937221;28;19965;-87
2021/11/26 16:41:11;;;;;;;;;;;;;;;8.56;75.99;97415.56;4937125;29;20278;-88
2021/11/26 16:43:36;;;;;;;;;;;;;;;8.60;75.85;97422.28;4954426;28;19923;-85
2021/11/26 16:46:02;;;;;;;;;;;;;;;8.62;76.09;97415.97;4937160;29;20390;-85
2021/11/26 16:48:29;;;;;;;;;;;;;;;8.49;76.31;97407.25;4950865;29;19918;-87
2021/11/26 16:50:55;;;;;;;;;;;;;;;8.53;76.24;97404.25;4937149;29;19923;-87
2021/11/26 16:53:20;;;;;;;;;;;;;;;8.84;75.67;97398.53;4937013;29;19922;-87
2021/11/26 16:55:45;;;;;;;;;;;;;;;8.97;75.22;97395.84;4933014;28;19942;-88
2021/11/26 16:58:11;;;;;;;;;;;;;;;9.27;74.04;97388.28;4954198;28;19922;-85
2021/11/26 17:00:36;;;;;;;;;;;;;;;9.02;74.46;97388.44;4936859;28;19918;-87
2021/11/26 17:03:01;;;;;;;;;;;;;;;8.77;75.18;97378.84;4935775;29;19945;-86
2021/11/26 17:05:29;;;;;;;;;;;;;;;8.93;74.86;97374.09;4951066;28;19922;-85
2021/11/26 17:07:55;;;;;;;;;;;;;;;9.04;74.28;97370.66;4936598;29;19925;-88
2021/11/26 17:10:20;;;;;;;;;;;;;;;9.20;73.33;97365.06;4937158;29;20297;-86
2021/11/26 17:12:46;;;;;;;;;;;;;;;9.00;74.18;97354.19;4952615;28;19997;-90
2021/11/26 17:15:11;;;;;;;;;;;;;;;9.16;73.94;97343.31;4936752;29;19923;-85
2021/11/26 17:17:36;;;;;;;;;;;;;;;9.24;73.83;97334.81;4931259;28;19924;-86
2021/11/26 17:20:03;;;;;;;;;;;;;;;9.48;72.88;97323.28;4936907;29;19918;-90
2021/11/26 17:22:28;;;;;;;;;;;;;;;9.51;72.57;97331.84;4953923;28;19919;-87
2021/11/26 17:24:54;;;;;;;;;;;;;;;9.36;72.85;97312.72;4936808;29;20045;-87
2021/11/26 17:27:22;;;;;;;;;;;;;;;9.41;75.52;97309.72;4953937;28;20396;-87
2021/11/26 17:29:48;;;;;;;;;;;;;;;9.24;77.64;97303.94;4954232;29;19919;-86
2021/11/26 17:32:14;;;;;;;;;;;;;;;8.98;79.00;97308.56;4935840;29;20053;-86
2021/11/26 17:34:41;;;;;;;;;;;;;;;8.85;79.83;97303.34;4953943;28;20017;-87
2021/11/26 17:37:07;;;;;;;;;;;;;;;8.94;79.73;97298.38;4936511;29;20398;-88
2021/11/26 17:39:34;;;;;;;;;;;;;;;9.17;79.24;97301.88;4936456;29;19923;-87
2021/11/26 17:42:00;;;;;;;;;;;;;;;9.36;78.46;97296.03;4954138;28;19918;-89
2021/11/26 17:44:25;;;;;;;;;;;;;;;9.26;78.39;97283.53;4940453;28;19922;-84
2021/11/26 17:46:51;;;;;;;;;;;;;;;9.18;78.34;97278.00;4939369;28;19926;-87
2021/11/26 17:49:18;;;;;;;;;;;;;;;9.04;78.70;97270.28;4940518;29;20493;-86
2021/11/26 17:51:43;;;;;;;;;;;;;;;9.19;78.35;97278.81;4940563;28;19957;-85
2021/11/26 17:54:09;;;;;;;;;;;;;;;9.15;78.14;97265.00;4957572;28;20417;-89
2021/11/26 17:56:34;;;;;;;;;;;;;;;9.09;78.22;97262.84;4940486;28;19934;-86
2021/11/26 17:59:00;;;;;;;;;;;;;;;9.25;77.91;97252.78;4940307;29;19925;-86
2021/11/26 18:01:25;;;;;;;;;;;;;;;9.21;77.84;97250.50;4956572;28;19929;-84
2021/11/26 18:03:50;;;;;;;;;;;;;;;9.43;77.23;97236.47;4940372;29;20009;-89
2021/11/26 18:06:27;;;;;;;;;;;;;;;9.59;76.60;97234.28;4939949;29;19977;-86
2021/11/26 18:08:56;;;;;;;;;;;;;;;9.63;76.51;97230.41;4957466;28;20416;-85
2021/11/26 18:13:56;;;;;;;;;;;;;;;9.57;75.32;97215.06;4956821;28;19923;-89
2021/11/26 18:16:21;;;;;;;;;;;;;;;9.39;76.04;97211.22;4939261;29;19929;-89
2021/11/26 18:18:48;;;;;;;;;;;;;;;9.37;76.22;97205.22;4939551;28;19926;-84
2021/11/26 18:21:14;;;;;;;;;;;;;;;9.48;74.82;97204.34;4940011;29;19925;-87
2021/11/26 18:23:39;;;;;;;;;;;;;;;9.40;75.54;97199.69;4939633;28;19922;-85
2021/11/26 18:26:04;;;;;;;;;;;;;;;9.60;75.46;97191.00;4938714;29;19923;-84
2021/11/26 18:28:31;;;;;;;;;;;;;;;9.72;75.00;97183.91;4956611;28;19922;-84
2021/11/26 18:30:57;;;;;;;;;;;;;;;9.72;75.70;97183.06;4957049;28;19929;-84
2021/11/26 18:33:22;;;;;;;;;;;;;;;9.69;75.38;97186.78;4938231;29;19919;-84
2021/11/26 18:35:50;;;;;;;;;;;;;;;9.61;76.01;97182.09;4956684;28;19970;-84
2021/11/26 18:38:16;;;;;;;;;;;;;;;9.54;76.55;97172.16;4938900;29;20036;-84
2021/11/26 18:40:45;;;;;;;;;;;;;;;9.47;76.68;97169.16;4939254;28;19973;-84
2021/11/26 18:43:20;;;;;;;;;;;;;;;9.49;75.95;97169.03;4939277;29;20298;-85
2021/11/26 18:45:45;;;;;;;;;;;;;;;9.49;75.41;97156.66;4955202;28;19970;-84
2021/11/26 18:48:11;;;;;;;;;;;;;;;9.49;75.02;97159.28;4937862;29;20298;-85
2021/11/26 18:50:37;;;;;;;;;;;;;;;9.62;75.29;97154.72;4939112;29;19919;-84
2021/11/26 18:53:03;;;;;;;;;;;;;;;9.60;75.67;97145.22;4938314;29;19923;-84
2021/11/26 18:55:28;;;;;;;;;;;;;;;9.41;76.34;97146.72;4956503;28;19922;-84
2021/11/26 18:57:55;;;;;;;;;;;;;;;9.36;76.70;97132.19;4939004;28;19926;-84
2021/11/26 19:00:21;;;;;;;;;;;;;;;9.35;76.81;97133.13;4934752;29;20297;-84
2021/11/26 19:02:46;;;;;;;;;;;;;;;9.27;77.00;97134.59;4937864;28;19919;-90
2021/11/26 19:05:11;;;;;;;;;;;;;;;9.23;77.20;97133.16;4938957;29;20928;-87
2021/11/26 19:07:37;;;;;;;;;;;;;;;9.21;77.11;97118.41;4939006;28;19926;-84
2021/11/26 19:10:03;;;;;;;;;;;;;;;9.19;77.36;97129.09;4938767;29;19922;-88
2021/11/26 19:12:28;;;;;;;;;;;;;;;9.22;77.44;97110.34;4956100;28;19922;-85
2021/11/26 19:14:54;;;;;;;;;;;;;;;9.39;76.86;97103.69;4938899;29;20360;-85
2021/11/26 19:17:20;;;;;;;;;;;;;;;9.56;76.33;97102.34;4954693;28;19926;-85
2021/11/26 19:19:45;;;;;;;;;;;;;;;9.72;76.23;97083.41;4934269;28;19919;-86
2021/11/26 19:22:10;;;;;;;;;;;;;;;9.96;74.33;97088.47;4938179;29;19933;-87
2021/11/26 19:24:36;;;;;;;;;;;;;;;9.80;74.16;97074.84;4938480;29;19923;-85
2021/11/26 19:27:01;;;;;;;;;;;;;;;9.87;73.49;97070.72;4955427;28;19926;-88
2021/11/26 19:29:27;;;;;;;;;;;;;;;9.84;74.48;97067.50;4937574;29;20037;-85
2021/11/26 19:31:52;;;;;;;;;;;;;;;9.92;73.08;97065.06;4936422;28;19981;-84
2021/11/26 19:34:18;;;;;;;;;;;;;;;9.93;73.68;97057.00;4955172;28;19970;-87
2021/11/26 19:36:43;;;;;;;;;;;;;;;9.99;72.99;97051.19;4938236;29;20374;-85
2021/11/26 19:39:09;;;;;;;;;;;;;;;10.08;73.34;97048.72;4955822;28;19919;-87
2021/11/26 19:41:38;;;;;;;;;;;;;;;10.15;73.15;97050.75;4954936;29;19937;-87
2021/11/26 19:44:05;;;;;;;;;;;;;;;10.33;72.93;97032.47;4954986;28;19922;-85
2021/11/26 19:46:30;;;;;;;;;;;;;;;10.34;72.94;97034.16;4952483;28;20449;-87
2021/11/26 19:48:56;;;;;;;;;;;;;;;10.28;72.87;97034.66;4938170;28;20017;-88
2021/11/26 19:51:21;;;;;;;;;;;;;;;10.19;73.10;97027.50;4955252;28;20371;-89
2021/11/26 19:53:46;;;;;;;;;;;;;;;9.92;73.99;97020.91;4938032;28;19918;-87
2021/11/26 19:56:12;;;;;;;;;;;;;;;9.82;74.51;97015.56;4937661;29;20306;-85
2021/11/26 19:58:37;;;;;;;;;;;;;;;9.90;74.45;97014.94;4937512;29;19929;-85
2021/11/26 20:01:04;;;;;;;;;;;;;;;10.07;73.61;97017.94;4937786;29;20398;-87
2021/11/26 20:03:29;;;;;;;;;;;;;;;9.86;74.54;97026.75;4952900;29;20063;-84
2021/11/26 20:05:55;;;;;;;;;;;;;;;9.74;74.53;97014.53;4937003;29;20419;-86
2021/11/26 20:08:24;;;;;;;;;;;;;;;7.75;79.19;97020.47;4937600;29;19922;-87
2021/11/26 20:10:51;;;;;;;;;;;;;;;6.86;82.02;97014.72;4937425;29;19989;-86
2021/11/26 20:13:16;;;;;;;;;;;;;;;6.31;82.83;97013.34;4937661;29;19919;-86
2021/11/26 20:15:41;;;;;;;;;;;;;;;5.97;83.26;97015.69;4954559;28;19930;-85
2021/11/26 20:18:07;;;;;;;;;;;;;;;5.62;83.78;97005.72;4936240;28;20443;-85
2021/11/26 20:20:32;;;;;;;;;;;;;;;5.34;83.58;97010.16;4937311;29;19946;-84
2021/11/26 20:22:58;;;;;;;;;;;;;;;5.08;83.43;97006.63;4936561;29;20342;-85
2021/11/26 20:25:23;;;;;;;;;;;;;;;4.89;83.52;97012.22;4936669;29;19957;-84